sensor_id;sensor_type;location;lat;lon;timestamp;P1;durP1;ratioP1;P2;durP2;ratioP2
4756;SDS011;2392;52.578;13.426;2023-10-13T00:01:47;33.20;;;11.50;;
4756;SDS011;2392;52.578;13.426;2023-10-13T00:04:17;27.90;;;9.97;;
4756;SDS011;2392;52.578;13.426;2023-10-13T00:06:47;31.23;;;10.10;;
4756;SDS011;2392;52.578;13.426;2023-10-13T00:09:14;29.70;;;9.80;;
4756;SDS011;2392;52.578;13.426;2023-10-13T00:11:42;30.07;;;9.90;;
4756;SDS011;2392;52.578;13.426;2023-10-13T00:14:12;29.13;;;9.37;;
4756;SDS011;2392;52.578;13.426;2023-10-13T00:16:41;27.90;;;8.60;;
4756;SDS011;2392;52.578;13.426;2023-10-13T00:19:26;29.17;;;9.23;;
4756;SDS011;2392;52.578;13.426;2023-10-13T00:21:54;28.00;;;9.27;;
4756;SDS011;2392;52.578;13.426;2023-10-13T00:24:21;29.27;;;8.80;;
4756;SDS011;2392;52.578;13.426;2023-10-13T00:26:54;25.77;;;7.83;;
4756;SDS011;2392;52.578;13.426;2023-10-13T00:29:24;28.80;;;8.37;;
4756;SDS011;2392;52.578;13.426;2023-10-13T00:32:02;24.67;;;8.10;;
4756;SDS011;2392;52.578;13.426;2023-10-13T00:34:30;25.87;;;8.60;;
4756;SDS011;2392;52.578;13.426;2023-10-13T00:36:58;26.27;;;7.77;;
4756;SDS011;2392;52.578;13.426;2023-10-13T00:39:43;28.33;;;8.67;;
4756;SDS011;2392;52.578;13.426;2023-10-13T00:42:10;26.67;;;7.40;;
4756;SDS011;2392;52.578;13.426;2023-10-13T00:44:46;32.87;;;7.90;;
4756;SDS011;2392;52.578;13.426;2023-10-13T00:47:14;25.47;;;7.60;;
4756;SDS011;2392;52.578;13.426;2023-10-13T00:49:43;29.70;;;8.00;;
4756;SDS011;2392;52.578;13.426;2023-10-13T00:52:13;23.93;;;7.70;;
4756;SDS011;2392;52.578;13.426;2023-10-13T00:54:40;25.37;;;8.30;;
4756;SDS011;2392;52.578;13.426;2023-10-13T00:57:11;27.17;;;8.00;;
4756;SDS011;2392;52.578;13.426;2023-10-13T00:59:52;26.10;;;6.83;;
4756;SDS011;2392;52.578;13.426;2023-10-13T01:02:20;30.37;;;7.80;;
4756;SDS011;2392;52.578;13.426;2023-10-13T01:05:03;25.37;;;7.47;;
4756;SDS011;2392;52.578;13.426;2023-10-13T01:07:32;25.80;;;7.87;;
4756;SDS011;2392;52.578;13.426;2023-10-13T01:10:02;26.20;;;8.03;;
4756;SDS011;2392;52.578;13.426;2023-10-13T01:12:30;27.33;;;7.50;;
4756;SDS011;2392;52.578;13.426;2023-10-13T01:14:58;23.57;;;7.10;;
4756;SDS011;2392;52.578;13.426;2023-10-13T01:17:33;25.20;;;6.93;;
4756;SDS011;2392;52.578;13.426;2023-10-13T01:19:59;26.60;;;7.30;;
4756;SDS011;2392;52.578;13.426;2023-10-13T01:22:26;24.10;;;6.70;;
4756;SDS011;2392;52.578;13.426;2023-10-13T01:24:55;21.63;;;6.50;;
4756;SDS011;2392;52.578;13.426;2023-10-13T01:27:41;23.50;;;6.87;;
4756;SDS011;2392;52.578;13.426;2023-10-13T01:30:08;21.73;;;5.93;;
4756;SDS011;2392;52.578;13.426;2023-10-13T01:32:38;30.20;;;6.40;;
4756;SDS011;2392;52.578;13.426;2023-10-13T01:35:10;25.23;;;6.90;;
4756;SDS011;2392;52.578;13.426;2023-10-13T01:37:37;24.10;;;7.20;;
4756;SDS011;2392;52.578;13.426;2023-10-13T01:40:05;21.50;;;6.13;;
4756;SDS011;2392;52.578;13.426;2023-10-13T01:42:35;23.27;;;6.37;;
4756;SDS011;2392;52.578;13.426;2023-10-13T01:45:02;23.57;;;6.30;;
4756;SDS011;2392;52.578;13.426;2023-10-13T01:47:31;22.77;;;6.60;;
4756;SDS011;2392;52.578;13.426;2023-10-13T01:49:58;22.77;;;6.40;;
4756;SDS011;2392;52.578;13.426;2023-10-13T01:52:32;23.30;;;6.53;;
4756;SDS011;2392;52.578;13.426;2023-10-13T01:54:58;27.93;;;7.43;;
4756;SDS011;2392;52.578;13.426;2023-10-13T01:57:27;24.63;;;7.47;;
4756;SDS011;2392;52.578;13.426;2023-10-13T01:59:54;25.17;;;6.60;;
4756;SDS011;2392;52.578;13.426;2023-10-13T02:02:21;25.80;;;6.90;;
4756;SDS011;2392;52.578;13.426;2023-10-13T02:04:54;28.83;;;7.20;;
4756;SDS011;2392;52.578;13.426;2023-10-13T02:07:25;34.30;;;7.73;;
4756;SDS011;2392;52.578;13.426;2023-10-13T02:09:55;29.50;;;8.30;;
4756;SDS011;2392;52.578;13.426;2023-10-13T02:12:21;30.07;;;8.27;;
4756;SDS011;2392;52.578;13.426;2023-10-13T02:14:55;28.67;;;8.27;;
4756;SDS011;2392;52.578;13.426;2023-10-13T02:17:26;26.40;;;8.03;;
4756;SDS011;2392;52.578;13.426;2023-10-13T02:19:52;28.03;;;8.27;;
4756;SDS011;2392;52.578;13.426;2023-10-13T02:22:19;31.20;;;8.33;;
4756;SDS011;2392;52.578;13.426;2023-10-13T02:24:57;29.33;;;8.53;;
4756;SDS011;2392;52.578;13.426;2023-10-13T02:27:27;28.77;;;8.50;;
4756;SDS011;2392;52.578;13.426;2023-10-13T02:29:53;28.07;;;8.07;;
4756;SDS011;2392;52.578;13.426;2023-10-13T02:32:25;28.50;;;8.00;;
4756;SDS011;2392;52.578;13.426;2023-10-13T02:34:52;27.93;;;7.73;;
4756;SDS011;2392;52.578;13.426;2023-10-13T02:37:23;40.70;;;9.40;;
4756;SDS011;2392;52.578;13.426;2023-10-13T02:39:49;34.63;;;9.00;;
4756;SDS011;2392;52.578;13.426;2023-10-13T02:42:17;32.30;;;8.17;;
4756;SDS011;2392;52.578;13.426;2023-10-13T02:44:48;33.50;;;9.97;;
4756;SDS011;2392;52.578;13.426;2023-10-13T02:47:16;29.83;;;9.30;;
4756;SDS011;2392;52.578;13.426;2023-10-13T02:49:45;30.13;;;9.53;;
4756;SDS011;2392;52.578;13.426;2023-10-13T02:52:13;30.70;;;9.40;;
4756;SDS011;2392;52.578;13.426;2023-10-13T02:54:39;32.67;;;9.40;;
4756;SDS011;2392;52.578;13.426;2023-10-13T02:57:12;33.97;;;9.53;;
4756;SDS011;2392;52.578;13.426;2023-10-13T02:59:41;33.23;;;10.47;;
4756;SDS011;2392;52.578;13.426;2023-10-13T03:02:12;31.93;;;10.00;;
4756;SDS011;2392;52.578;13.426;2023-10-13T03:04:52;29.80;;;10.97;;
4756;SDS011;2392;52.578;13.426;2023-10-13T03:07:25;31.20;;;10.47;;
4756;SDS011;2392;52.578;13.426;2023-10-13T03:09:53;29.10;;;10.60;;
4756;SDS011;2392;52.578;13.426;2023-10-13T03:12:23;33.30;;;9.23;;
4756;SDS011;2392;52.578;13.426;2023-10-13T03:14:49;30.10;;;11.07;;
4756;SDS011;2392;52.578;13.426;2023-10-13T03:17:21;34.20;;;11.83;;
4756;SDS011;2392;52.578;13.426;2023-10-13T03:19:59;31.13;;;10.60;;
4756;SDS011;2392;52.578;13.426;2023-10-13T03:22:28;31.50;;;11.20;;
4756;SDS011;2392;52.578;13.426;2023-10-13T03:24:57;36.70;;;12.40;;
4756;SDS011;2392;52.578;13.426;2023-10-13T03:27:30;34.53;;;10.93;;
4756;SDS011;2392;52.578;13.426;2023-10-13T03:30:07;34.60;;;13.13;;
4756;SDS011;2392;52.578;13.426;2023-10-13T03:32:39;28.13;;;10.97;;
4756;SDS011;2392;52.578;13.426;2023-10-13T03:35:10;37.17;;;11.80;;
4756;SDS011;2392;52.578;13.426;2023-10-13T03:37:39;33.03;;;11.10;;
4756;SDS011;2392;52.578;13.426;2023-10-13T03:40:07;32.57;;;11.87;;
4756;SDS011;2392;52.578;13.426;2023-10-13T03:42:56;38.83;;;13.50;;
4756;SDS011;2392;52.578;13.426;2023-10-13T03:45:29;32.70;;;12.13;;
4756;SDS011;2392;52.578;13.426;2023-10-13T03:48:02;30.47;;;13.23;;
4756;SDS011;2392;52.578;13.426;2023-10-13T03:50:35;37.53;;;13.17;;
4756;SDS011;2392;52.578;13.426;2023-10-13T03:53:06;30.40;;;13.40;;
4756;SDS011;2392;52.578;13.426;2023-10-13T03:55:38;39.27;;;13.70;;
4756;SDS011;2392;52.578;13.426;2023-10-13T03:58:05;36.47;;;13.80;;
4756;SDS011;2392;52.578;13.426;2023-10-13T04:00:36;30.63;;;14.10;;
4756;SDS011;2392;52.578;13.426;2023-10-13T04:03:03;33.03;;;14.07;;
4756;SDS011;2392;52.578;13.426;2023-10-13T04:05:36;33.80;;;14.70;;
4756;SDS011;2392;52.578;13.426;2023-10-13T04:08:10;32.17;;;14.70;;
4756;SDS011;2392;52.578;13.426;2023-10-13T04:10:55;37.73;;;14.90;;
4756;SDS011;2392;52.578;13.426;2023-10-13T04:13:40;34.57;;;16.20;;
4756;SDS011;2392;52.578;13.426;2023-10-13T04:16:30;36.70;;;15.30;;
4756;SDS011;2392;52.578;13.426;2023-10-13T04:19:15;36.93;;;14.20;;
4756;SDS011;2392;52.578;13.426;2023-10-13T04:21:49;38.20;;;16.23;;
4756;SDS011;2392;52.578;13.426;2023-10-13T04:24:39;38.73;;;17.33;;
4756;SDS011;2392;52.578;13.426;2023-10-13T04:27:20;41.67;;;16.37;;
4756;SDS011;2392;52.578;13.426;2023-10-13T04:30:06;40.40;;;17.83;;
4756;SDS011;2392;52.578;13.426;2023-10-13T04:32:35;36.30;;;16.07;;
4756;SDS011;2392;52.578;13.426;2023-10-13T04:35:07;45.60;;;18.37;;
4756;SDS011;2392;52.578;13.426;2023-10-13T04:37:44;39.90;;;18.07;;
4756;SDS011;2392;52.578;13.426;2023-10-13T04:40:19;38.97;;;18.07;;
4756;SDS011;2392;52.578;13.426;2023-10-13T04:42:49;37.73;;;18.27;;
4756;SDS011;2392;52.578;13.426;2023-10-13T04:45:19;44.10;;;20.20;;
4756;SDS011;2392;52.578;13.426;2023-10-13T04:48:04;41.13;;;19.67;;
4756;SDS011;2392;52.578;13.426;2023-10-13T04:50:58;57.33;;;19.60;;
4756;SDS011;2392;52.578;13.426;2023-10-13T04:53:41;43.07;;;19.13;;
4756;SDS011;2392;52.578;13.426;2023-10-13T04:56:22;41.10;;;19.53;;
4756;SDS011;2392;52.578;13.426;2023-10-13T04:59:03;42.10;;;20.83;;
4756;SDS011;2392;52.578;13.426;2023-10-13T05:02:00;42.93;;;20.03;;
4756;SDS011;2392;52.578;13.426;2023-10-13T05:04:41;41.27;;;20.10;;
4756;SDS011;2392;52.578;13.426;2023-10-13T05:07:22;41.43;;;19.13;;
4756;SDS011;2392;52.578;13.426;2023-10-13T05:10:08;42.60;;;20.00;;
4756;SDS011;2392;52.578;13.426;2023-10-13T05:13:07;46.00;;;20.80;;
4756;SDS011;2392;52.578;13.426;2023-10-13T05:15:51;46.97;;;21.07;;
4756;SDS011;2392;52.578;13.426;2023-10-13T05:18:36;43.30;;;20.30;;
4756;SDS011;2392;52.578;13.426;2023-10-13T05:21:20;49.90;;;22.13;;
4756;SDS011;2392;52.578;13.426;2023-10-13T05:24:05;45.23;;;21.43;;
4756;SDS011;2392;52.578;13.426;2023-10-13T05:26:51;44.90;;;20.80;;
4756;SDS011;2392;52.578;13.426;2023-10-13T05:29:51;47.63;;;21.63;;
4756;SDS011;2392;52.578;13.426;2023-10-13T05:32:32;44.20;;;20.47;;
4756;SDS011;2392;52.578;13.426;2023-10-13T05:35:18;43.20;;;22.97;;
4756;SDS011;2392;52.578;13.426;2023-10-13T05:38:03;43.90;;;22.10;;
4756;SDS011;2392;52.578;13.426;2023-10-13T05:40:54;43.70;;;22.87;;
4756;SDS011;2392;52.578;13.426;2023-10-13T05:43:41;41.13;;;20.77;;
4756;SDS011;2392;52.578;13.426;2023-10-13T05:46:26;41.90;;;21.47;;
4756;SDS011;2392;52.578;13.426;2023-10-13T05:49:13;41.90;;;21.27;;
4756;SDS011;2392;52.578;13.426;2023-10-13T05:51:57;43.97;;;21.33;;
4756;SDS011;2392;52.578;13.426;2023-10-13T05:54:32;41.17;;;20.80;;
4756;SDS011;2392;52.578;13.426;2023-10-13T05:57:16;43.10;;;21.37;;
4756;SDS011;2392;52.578;13.426;2023-10-13T06:00:01;42.80;;;20.40;;
4756;SDS011;2392;52.578;13.426;2023-10-13T06:02:46;41.97;;;21.13;;
4756;SDS011;2392;52.578;13.426;2023-10-13T06:05:30;42.33;;;19.20;;
4756;SDS011;2392;52.578;13.426;2023-10-13T06:08:15;37.73;;;18.47;;
4756;SDS011;2392;52.578;13.426;2023-10-13T06:11:02;40.90;;;19.97;;
4756;SDS011;2392;52.578;13.426;2023-10-13T06:13:47;49.57;;;19.07;;
4756;SDS011;2392;52.578;13.426;2023-10-13T06:16:33;38.50;;;20.23;;
4756;SDS011;2392;52.578;13.426;2023-10-13T06:19:17;40.70;;;20.13;;
4756;SDS011;2392;52.578;13.426;2023-10-13T06:22:01;41.80;;;20.10;;
4756;SDS011;2392;52.578;13.426;2023-10-13T06:24:54;44.90;;;19.77;;
4756;SDS011;2392;52.578;13.426;2023-10-13T06:27:38;41.33;;;18.53;;
4756;SDS011;2392;52.578;13.426;2023-10-13T06:30:22;37.80;;;18.33;;
4756;SDS011;2392;52.578;13.426;2023-10-13T06:32:51;41.73;;;18.83;;
4756;SDS011;2392;52.578;13.426;2023-10-13T06:35:18;36.20;;;17.77;;
4756;SDS011;2392;52.578;13.426;2023-10-13T06:37:48;34.80;;;16.20;;
4756;SDS011;2392;52.578;13.426;2023-10-13T06:40:15;42.17;;;18.53;;
4756;SDS011;2392;52.578;13.426;2023-10-13T06:42:59;40.20;;;18.93;;
4756;SDS011;2392;52.578;13.426;2023-10-13T06:45:45;38.03;;;17.20;;
4756;SDS011;2392;52.578;13.426;2023-10-13T06:48:17;38.13;;;18.50;;
4756;SDS011;2392;52.578;13.426;2023-10-13T06:50:47;38.07;;;19.43;;
4756;SDS011;2392;52.578;13.426;2023-10-13T06:53:16;38.20;;;18.90;;
4756;SDS011;2392;52.578;13.426;2023-10-13T06:55:43;40.50;;;19.60;;
4756;SDS011;2392;52.578;13.426;2023-10-13T06:58:12;36.97;;;18.00;;
4756;SDS011;2392;52.578;13.426;2023-10-13T07:00:39;37.43;;;18.13;;
4756;SDS011;2392;52.578;13.426;2023-10-13T07:03:19;37.57;;;17.10;;
4756;SDS011;2392;52.578;13.426;2023-10-13T07:05:46;38.73;;;17.00;;
4756;SDS011;2392;52.578;13.426;2023-10-13T07:08:14;38.43;;;18.47;;
4756;SDS011;2392;52.578;13.426;2023-10-13T07:10:48;36.67;;;16.73;;
4756;SDS011;2392;52.578;13.426;2023-10-13T07:13:16;43.00;;;17.80;;
4756;SDS011;2392;52.578;13.426;2023-10-13T07:15:44;32.60;;;16.37;;
4756;SDS011;2392;52.578;13.426;2023-10-13T07:18:13;34.90;;;15.70;;
4756;SDS011;2392;52.578;13.426;2023-10-13T07:20:42;35.93;;;18.10;;
4756;SDS011;2392;52.578;13.426;2023-10-13T07:23:12;34.47;;;17.27;;
4756;SDS011;2392;52.578;13.426;2023-10-13T07:25:50;34.67;;;16.17;;
4756;SDS011;2392;52.578;13.426;2023-10-13T07:28:19;35.87;;;16.97;;
4756;SDS011;2392;52.578;13.426;2023-10-13T07:30:46;32.40;;;15.70;;
4756;SDS011;2392;52.578;13.426;2023-10-13T07:33:37;35.63;;;15.67;;
4756;SDS011;2392;52.578;13.426;2023-10-13T07:36:09;33.10;;;15.47;;
4756;SDS011;2392;52.578;13.426;2023-10-13T07:38:43;34.23;;;14.67;;
4756;SDS011;2392;52.578;13.426;2023-10-13T07:41:13;32.67;;;14.90;;
4756;SDS011;2392;52.578;13.426;2023-10-13T07:43:42;35.80;;;15.40;;
4756;SDS011;2392;52.578;13.426;2023-10-13T07:46:10;31.70;;;15.17;;
4756;SDS011;2392;52.578;13.426;2023-10-13T07:48:37;30.93;;;14.40;;
4756;SDS011;2392;52.578;13.426;2023-10-13T07:51:06;36.93;;;13.87;;
4756;SDS011;2392;52.578;13.426;2023-10-13T07:53:36;30.43;;;13.20;;
4756;SDS011;2392;52.578;13.426;2023-10-13T07:56:05;30.30;;;13.27;;
4756;SDS011;2392;52.578;13.426;2023-10-13T07:58:34;35.90;;;13.60;;
4756;SDS011;2392;52.578;13.426;2023-10-13T08:01:12;29.17;;;12.93;;
4756;SDS011;2392;52.578;13.426;2023-10-13T08:03:43;30.83;;;13.50;;
4756;SDS011;2392;52.578;13.426;2023-10-13T08:06:13;28.63;;;13.60;;
4756;SDS011;2392;52.578;13.426;2023-10-13T08:08:53;35.10;;;13.03;;
4756;SDS011;2392;52.578;13.426;2023-10-13T08:11:32;28.47;;;11.73;;
4756;SDS011;2392;52.578;13.426;2023-10-13T08:14:02;30.27;;;12.57;;
4756;SDS011;2392;52.578;13.426;2023-10-13T08:16:47;28.53;;;12.90;;
4756;SDS011;2392;52.578;13.426;2023-10-13T08:19:20;31.20;;;12.30;;
4756;SDS011;2392;52.578;13.426;2023-10-13T08:21:54;29.63;;;12.00;;
4756;SDS011;2392;52.578;13.426;2023-10-13T08:24:41;30.53;;;12.10;;
4756;SDS011;2392;52.578;13.426;2023-10-13T08:27:24;31.50;;;12.57;;
4756;SDS011;2392;52.578;13.426;2023-10-13T08:29:59;28.50;;;11.57;;
4756;SDS011;2392;52.578;13.426;2023-10-13T08:32:53;28.63;;;11.47;;
4756;SDS011;2392;52.578;13.426;2023-10-13T08:35:24;31.90;;;12.37;;
4756;SDS011;2392;52.578;13.426;2023-10-13T08:38:02;29.70;;;11.70;;
4756;SDS011;2392;52.578;13.426;2023-10-13T08:40:43;28.90;;;11.37;;
4756;SDS011;2392;52.578;13.426;2023-10-13T08:43:36;32.73;;;11.17;;
4756;SDS011;2392;52.578;13.426;2023-10-13T08:46:10;26.03;;;10.73;;
4756;SDS011;2392;52.578;13.426;2023-10-13T08:48:51;34.37;;;11.40;;
4756;SDS011;2392;52.578;13.426;2023-10-13T08:51:31;28.50;;;10.20;;
4756;SDS011;2392;52.578;13.426;2023-10-13T08:54:12;26.70;;;11.13;;
4756;SDS011;2392;52.578;13.426;2023-10-13T08:56:46;24.30;;;10.00;;
4756;SDS011;2392;52.578;13.426;2023-10-13T08:59:20;28.73;;;11.40;;
4756;SDS011;2392;52.578;13.426;2023-10-13T09:01:58;28.20;;;10.97;;
4756;SDS011;2392;52.578;13.426;2023-10-13T09:04:25;26.90;;;11.37;;
4756;SDS011;2392;52.578;13.426;2023-10-13T09:06:59;30.00;;;11.30;;
4756;SDS011;2392;52.578;13.426;2023-10-13T09:09:43;31.30;;;10.77;;
4756;SDS011;2392;52.578;13.426;2023-10-13T09:12:32;26.77;;;10.50;;
4756;SDS011;2392;52.578;13.426;2023-10-13T09:15:04;27.20;;;10.80;;
4756;SDS011;2392;52.578;13.426;2023-10-13T09:17:43;27.33;;;10.90;;
4756;SDS011;2392;52.578;13.426;2023-10-13T09:20:17;24.87;;;9.93;;
4756;SDS011;2392;52.578;13.426;2023-10-13T09:23:08;26.30;;;10.20;;
4756;SDS011;2392;52.578;13.426;2023-10-13T09:25:37;30.57;;;10.67;;
4756;SDS011;2392;52.578;13.426;2023-10-13T09:28:19;26.57;;;10.50;;
4756;SDS011;2392;52.578;13.426;2023-10-13T09:30:47;26.27;;;10.30;;
4756;SDS011;2392;52.578;13.426;2023-10-13T09:33:19;33.07;;;11.10;;
4756;SDS011;2392;52.578;13.426;2023-10-13T09:35:53;27.57;;;10.53;;
4756;SDS011;2392;52.578;13.426;2023-10-13T09:38:24;30.00;;;10.77;;
4756;SDS011;2392;52.578;13.426;2023-10-13T09:40:53;26.57;;;11.70;;
4756;SDS011;2392;52.578;13.426;2023-10-13T09:43:22;30.77;;;11.50;;
4756;SDS011;2392;52.578;13.426;2023-10-13T09:45:50;31.03;;;11.67;;
4756;SDS011;2392;52.578;13.426;2023-10-13T09:48:36;28.10;;;10.50;;
4756;SDS011;2392;52.578;13.426;2023-10-13T09:51:06;29.67;;;10.00;;
4756;SDS011;2392;52.578;13.426;2023-10-13T09:53:37;28.03;;;10.07;;
4756;SDS011;2392;52.578;13.426;2023-10-13T09:56:10;28.53;;;10.57;;
4756;SDS011;2392;52.578;13.426;2023-10-13T09:58:46;34.33;;;10.77;;
4756;SDS011;2392;52.578;13.426;2023-10-13T10:01:20;25.13;;;10.10;;
4756;SDS011;2392;52.578;13.426;2023-10-13T10:04:05;27.70;;;9.60;;
4756;SDS011;2392;52.578;13.426;2023-10-13T10:06:34;29.10;;;10.57;;
4756;SDS011;2392;52.578;13.426;2023-10-13T10:09:05;27.07;;;10.13;;
4756;SDS011;2392;52.578;13.426;2023-10-13T10:11:58;29.47;;;11.33;;
4756;SDS011;2392;52.578;13.426;2023-10-13T10:17:37;26.33;;;9.70;;
4756;SDS011;2392;52.578;13.426;2023-10-13T10:20:06;25.37;;;9.83;;
4756;SDS011;2392;52.578;13.426;2023-10-13T10:22:40;32.33;;;10.73;;
4756;SDS011;2392;52.578;13.426;2023-10-13T10:25:12;27.30;;;11.43;;
4756;SDS011;2392;52.578;13.426;2023-10-13T10:27:55;33.13;;;11.37;;
4756;SDS011;2392;52.578;13.426;2023-10-13T10:30:24;25.73;;;10.20;;
4756;SDS011;2392;52.578;13.426;2023-10-13T10:32:53;27.07;;;9.90;;
4756;SDS011;2392;52.578;13.426;2023-10-13T10:35:24;27.70;;;10.53;;
4756;SDS011;2392;52.578;13.426;2023-10-13T10:37:56;29.13;;;10.27;;
4756;SDS011;2392;52.578;13.426;2023-10-13T10:40:28;24.50;;;9.73;;
4756;SDS011;2392;52.578;13.426;2023-10-13T10:43:14;26.70;;;9.97;;
4756;SDS011;2392;52.578;13.426;2023-10-13T10:45:45;29.67;;;10.80;;
4756;SDS011;2392;52.578;13.426;2023-10-13T10:48:13;27.43;;;9.90;;
4756;SDS011;2392;52.578;13.426;2023-10-13T10:50:43;27.30;;;10.60;;
4756;SDS011;2392;52.578;13.426;2023-10-13T10:53:18;24.50;;;10.10;;
4756;SDS011;2392;52.578;13.426;2023-10-13T10:55:47;29.47;;;11.23;;
4756;SDS011;2392;52.578;13.426;2023-10-13T10:58:16;27.80;;;10.10;;
4756;SDS011;2392;52.578;13.426;2023-10-13T11:01:04;26.30;;;10.10;;
4756;SDS011;2392;52.578;13.426;2023-10-13T11:03:35;25.63;;;10.33;;
4756;SDS011;2392;52.578;13.426;2023-10-13T11:06:11;26.70;;;10.83;;
4756;SDS011;2392;52.578;13.426;2023-10-13T11:08:42;28.17;;;11.30;;
4756;SDS011;2392;52.578;13.426;2023-10-13T11:11:16;28.70;;;10.73;;
4756;SDS011;2392;52.578;13.426;2023-10-13T11:13:57;26.00;;;10.80;;
4756;SDS011;2392;52.578;13.426;2023-10-13T11:16:45;32.57;;;11.73;;
4756;SDS011;2392;52.578;13.426;2023-10-13T11:19:16;26.43;;;10.33;;
4756;SDS011;2392;52.578;13.426;2023-10-13T11:21:50;29.07;;;10.63;;
4756;SDS011;2392;52.578;13.426;2023-10-13T11:24:19;29.57;;;11.40;;
4756;SDS011;2392;52.578;13.426;2023-10-13T11:26:47;26.47;;;11.13;;
4756;SDS011;2392;52.578;13.426;2023-10-13T11:29:32;26.73;;;11.30;;
4756;SDS011;2392;52.578;13.426;2023-10-13T11:31:59;26.93;;;10.83;;
4756;SDS011;2392;52.578;13.426;2023-10-13T11:34:28;30.43;;;10.40;;
4756;SDS011;2392;52.578;13.426;2023-10-13T11:37:05;33.27;;;10.97;;
4756;SDS011;2392;52.578;13.426;2023-10-13T11:39:46;26.53;;;10.63;;
4756;SDS011;2392;52.578;13.426;2023-10-13T11:42:13;26.97;;;11.10;;
4756;SDS011;2392;52.578;13.426;2023-10-13T11:44:43;28.10;;;11.00;;
4756;SDS011;2392;52.578;13.426;2023-10-13T11:47:10;27.60;;;10.50;;
4756;SDS011;2392;52.578;13.426;2023-10-13T11:49:57;27.13;;;10.50;;
4756;SDS011;2392;52.578;13.426;2023-10-13T11:52:24;29.57;;;10.53;;
4756;SDS011;2392;52.578;13.426;2023-10-13T11:54:54;27.27;;;11.53;;
4756;SDS011;2392;52.578;13.426;2023-10-13T11:57:21;28.63;;;9.83;;
4756;SDS011;2392;52.578;13.426;2023-10-13T11:59:49;37.17;;;10.70;;
4756;SDS011;2392;52.578;13.426;2023-10-13T12:02:21;30.33;;;10.70;;
4756;SDS011;2392;52.578;13.426;2023-10-13T12:05:06;28.90;;;10.30;;
4756;SDS011;2392;52.578;13.426;2023-10-13T12:07:40;29.60;;;10.40;;
4756;SDS011;2392;52.578;13.426;2023-10-13T12:10:17;26.53;;;9.23;;
4756;SDS011;2392;52.578;13.426;2023-10-13T12:13:14;28.40;;;8.97;;
4756;SDS011;2392;52.578;13.426;2023-10-13T12:15:44;25.83;;;9.20;;
4756;SDS011;2392;52.578;13.426;2023-10-13T12:18:17;27.07;;;9.67;;
4756;SDS011;2392;52.578;13.426;2023-10-13T12:20:48;32.93;;;10.67;;
4756;SDS011;2392;52.578;13.426;2023-10-13T12:23:15;30.70;;;9.47;;
4756;SDS011;2392;52.578;13.426;2023-10-13T12:25:42;31.40;;;10.37;;
4756;SDS011;2392;52.578;13.426;2023-10-13T12:28:31;30.73;;;9.40;;
4756;SDS011;2392;52.578;13.426;2023-10-13T12:31:07;24.60;;;9.20;;
4756;SDS011;2392;52.578;13.426;2023-10-13T12:33:37;27.50;;;9.57;;
4756;SDS011;2392;52.578;13.426;2023-10-13T12:36:05;27.10;;;9.43;;
4756;SDS011;2392;52.578;13.426;2023-10-13T12:38:34;26.40;;;9.30;;
4756;SDS011;2392;52.578;13.426;2023-10-13T12:41:37;28.40;;;8.97;;
4756;SDS011;2392;52.578;13.426;2023-10-13T12:44:22;28.20;;;9.50;;
4756;SDS011;2392;52.578;13.426;2023-10-13T12:47:08;28.60;;;9.13;;
4756;SDS011;2392;52.578;13.426;2023-10-13T12:49:52;27.63;;;9.43;;
4756;SDS011;2392;52.578;13.426;2023-10-13T12:52:25;29.40;;;9.00;;
4756;SDS011;2392;52.578;13.426;2023-10-13T12:54:52;32.40;;;9.33;;
4756;SDS011;2392;52.578;13.426;2023-10-13T12:57:32;30.73;;;10.27;;
4756;SDS011;2392;52.578;13.426;2023-10-13T12:59:59;28.13;;;9.43;;
4756;SDS011;2392;52.578;13.426;2023-10-13T13:02:43;26.57;;;9.40;;
4756;SDS011;2392;52.578;13.426;2023-10-13T13:05:09;29.17;;;9.53;;
4756;SDS011;2392;52.578;13.426;2023-10-13T13:07:38;28.63;;;8.73;;
4756;SDS011;2392;52.578;13.426;2023-10-13T13:10:09;34.00;;;9.23;;
4756;SDS011;2392;52.578;13.426;2023-10-13T13:12:38;29.67;;;9.43;;
4756;SDS011;2392;52.578;13.426;2023-10-13T13:15:06;27.80;;;9.53;;
4756;SDS011;2392;52.578;13.426;2023-10-13T13:17:35;34.17;;;10.00;;
4756;SDS011;2392;52.578;13.426;2023-10-13T13:20:06;27.47;;;10.20;;
4756;SDS011;2392;52.578;13.426;2023-10-13T13:22:50;31.37;;;8.60;;
4756;SDS011;2392;52.578;13.426;2023-10-13T13:25:21;30.20;;;9.33;;
4756;SDS011;2392;52.578;13.426;2023-10-13T13:27:51;28.50;;;9.17;;
4756;SDS011;2392;52.578;13.426;2023-10-13T13:30:18;28.23;;;9.60;;
4756;SDS011;2392;52.578;13.426;2023-10-13T13:32:47;27.20;;;8.13;;
4756;SDS011;2392;52.578;13.426;2023-10-13T13:35:17;30.40;;;8.70;;
4756;SDS011;2392;52.578;13.426;2023-10-13T13:37:44;31.33;;;8.97;;
4756;SDS011;2392;52.578;13.426;2023-10-13T13:40:11;27.00;;;9.10;;
4756;SDS011;2392;52.578;13.426;2023-10-13T13:42:41;26.67;;;8.73;;
4756;SDS011;2392;52.578;13.426;2023-10-13T13:45:12;36.67;;;9.30;;
4756;SDS011;2392;52.578;13.426;2023-10-13T13:47:47;27.60;;;8.70;;
4756;SDS011;2392;52.578;13.426;2023-10-13T13:50:20;34.20;;;8.60;;
4756;SDS011;2392;52.578;13.426;2023-10-13T13:52:51;31.20;;;8.97;;
4756;SDS011;2392;52.578;13.426;2023-10-13T13:55:21;32.17;;;8.40;;
4756;SDS011;2392;52.578;13.426;2023-10-13T13:57:48;26.13;;;8.67;;
4756;SDS011;2392;52.578;13.426;2023-10-13T14:00:16;27.77;;;8.30;;
4756;SDS011;2392;52.578;13.426;2023-10-13T14:02:48;32.33;;;9.83;;
4756;SDS011;2392;52.578;13.426;2023-10-13T14:05:15;27.73;;;8.37;;
4756;SDS011;2392;52.578;13.426;2023-10-13T14:07:44;31.20;;;8.77;;
4756;SDS011;2392;52.578;13.426;2023-10-13T14:10:15;29.67;;;9.43;;
4756;SDS011;2392;52.578;13.426;2023-10-13T14:13:02;30.57;;;9.00;;
4756;SDS011;2392;52.578;13.426;2023-10-13T14:15:38;26.90;;;8.27;;
4756;SDS011;2392;52.578;13.426;2023-10-13T14:18:09;27.20;;;8.90;;
4756;SDS011;2392;52.578;13.426;2023-10-13T14:20:40;27.70;;;8.90;;
4756;SDS011;2392;52.578;13.426;2023-10-13T14:23:09;33.80;;;8.90;;
4756;SDS011;2392;52.578;13.426;2023-10-13T14:25:37;25.07;;;8.60;;
4756;SDS011;2392;52.578;13.426;2023-10-13T14:28:09;29.53;;;8.67;;
4756;SDS011;2392;52.578;13.426;2023-10-13T14:30:42;30.40;;;9.33;;
4756;SDS011;2392;52.578;13.426;2023-10-13T14:33:10;31.20;;;8.90;;
4756;SDS011;2392;52.578;13.426;2023-10-13T14:35:37;31.80;;;9.13;;
4756;SDS011;2392;52.578;13.426;2023-10-13T14:38:04;27.07;;;8.60;;
4756;SDS011;2392;52.578;13.426;2023-10-13T14:40:33;30.97;;;9.07;;
4756;SDS011;2392;52.578;13.426;2023-10-13T14:43:00;32.10;;;9.60;;
4756;SDS011;2392;52.578;13.426;2023-10-13T14:45:29;27.83;;;8.43;;
4756;SDS011;2392;52.578;13.426;2023-10-13T14:47:59;31.93;;;8.53;;
4756;SDS011;2392;52.578;13.426;2023-10-13T14:50:26;32.40;;;10.03;;
4756;SDS011;2392;52.578;13.426;2023-10-13T14:52:53;28.67;;;9.40;;
4756;SDS011;2392;52.578;13.426;2023-10-13T14:55:20;33.73;;;9.00;;
4756;SDS011;2392;52.578;13.426;2023-10-13T14:58:04;29.80;;;9.30;;
4756;SDS011;2392;52.578;13.426;2023-10-13T15:00:33;24.83;;;8.40;;
4756;SDS011;2392;52.578;13.426;2023-10-13T15:03:00;31.23;;;8.37;;
4756;SDS011;2392;52.578;13.426;2023-10-13T15:05:30;30.50;;;8.43;;
4756;SDS011;2392;52.578;13.426;2023-10-13T15:08:01;29.80;;;8.97;;
4756;SDS011;2392;52.578;13.426;2023-10-13T15:10:31;29.47;;;9.70;;
4756;SDS011;2392;52.578;13.426;2023-10-13T15:13:01;28.40;;;8.60;;
4756;SDS011;2392;52.578;13.426;2023-10-13T15:15:30;29.43;;;9.20;;
4756;SDS011;2392;52.578;13.426;2023-10-13T15:17:57;28.60;;;9.07;;
4756;SDS011;2392;52.578;13.426;2023-10-13T15:20:26;28.77;;;9.57;;
4756;SDS011;2392;52.578;13.426;2023-10-13T15:22:53;33.90;;;9.40;;
4756;SDS011;2392;52.578;13.426;2023-10-13T15:25:25;28.23;;;8.50;;